Flight Track Log - Related Links

Times and Time Zones

All times are in EDT time to prevent confusion due to time zone crossing. See the DAL2132 flight status page for this flight to view local times or setup timezone preferences in your user account.

Time Position Orientation Groundspeed Altitude Reporting Facility
EDT Latitude Longitude Course Direction KTS MPH feet Rate Location/Type
09:59AM 33.6500 -84.4833 257° West 198 228 3,700  Level Atlanta TRACON
10:00AM 33.6667 -84.5667 284° West 249 287 6,900 2,663 Climbing Atlanta TRACON
10:01AM 33.5420 -84.8446 255° West  Level Estimated
10:02AM 33.5260 -84.9872 262° West  Level FlightAware Approximate
10:02AM 33.6897 -84.7928 277° West 303 349 12,800  Level Atlanta Center
10:03AM 33.5099 -85.1297 262° West  Level FlightAware Approximate
10:04AM 33.4774 -85.2682 257° West  Level Estimated
10:04AM 33.5942 -85.0239 244° Southwest 389 448 18,200  Level Atlanta Center
10:05AM 33.5450 -85.1431 244° Southwest 397 457 20,400 2,250 Climbing Atlanta Center
10:06AM 33.5064 -85.2694 250° West 408 470 22,700 2,050 Climbing Atlanta Center
10:07AM 33.4861 -85.4039 260° West 408 470 24,500 1,750 Climbing Atlanta Center
10:08AM 33.4681 -85.5206 260° West 414 476 26,200 1,600 Climbing Atlanta Center
10:09AM 33.4475 -85.6597 260° West 414 476 27,700 1,350 Climbing Atlanta Center
10:10AM 33.4247 -85.7961 259° West 414 476 28,900 1,150 Climbing Atlanta Center
10:11AM 33.3978 -85.9297 256° West 415 478 30,000 550 Climbing Atlanta Center
10:12AM 33.3767 -86.0736 260° West 429 494 30,000  Level Atlanta Center
10:13AM 33.3533 -86.2197 259° West 436 502 30,000  Level Atlanta Center
10:14AM 33.3297 -86.3636 259° West 447 514 30,000  Level Atlanta Center
10:15AM 33.3017 -86.5169 258° West 447 514 30,000  Level Atlanta Center
10:16AM 33.2844 -86.6431 261° West 447 514 30,000 500 Level Atlanta Center
10:17AM 33.2608 -86.7814 258° West 442 509 31,000 1,300 Climbing Atlanta Center
10:18AM 33.2367 -86.9197 258° West 437 503 32,600 2,250 Climbing Atlanta Center
10:19AM 33.1856 -87.0497 245° Southwest 430 495 35,500 2,650 Climbing Atlanta Center
10:20AM 33.1328 -87.1594 240° Southwest 399 459 37,900 1,250 Climbing Atlanta Center
10:21AM 33.0861 -87.2644 242° Southwest 376 433 38,000 30 Climbing Atlanta Center
10:24AM 32.9792 -87.5031 242° Southwest 379 436 38,000  Level Memphis Center
10:25AM 32.9283 -87.6156 242° Southwest 381 438 38,000  Level Memphis Center
10:26AM 32.8661 -87.7531 242° Southwest 386 444 38,000  Level Memphis Center
10:27AM 32.8144 -87.8639 241° Southwest 386 444 38,000  Level Memphis Center
10:28AM 32.7619 -87.9797 242° Southwest 386 444 38,000  Level Memphis Center
10:29AM 32.7119 -88.0889 241° Southwest 383 441 38,000  Level Memphis Center
10:30AM 32.6622 -88.1961 241° Southwest 377 434 38,000  Level Memphis Center
10:31AM 32.6106 -88.3069 241° Southwest 379 436 38,000  Level Memphis Center
10:32AM 32.5600 -88.4178 242° Southwest 381 438 38,000  Level Memphis Center
10:33AM 32.4986 -88.5481 241° Southwest 381 438 38,000  Level Memphis Center
10:34AM 32.4475 -88.6572 241° Southwest 381 438 38,000  Level Memphis Center
10:35AM 32.3936 -88.7736 241° Southwest 381 438 38,000  Level Memphis Center
10:36AM 32.3556 -88.8789 247° West 379 436 38,000  Level Memphis Center
10:37AM 32.3236 -88.9942 252° West 373 429 38,000  Level Memphis Center
10:38AM 32.2842 -89.1336 252° West 373 429 38,000  Level Memphis Center
10:39AM 32.2503 -89.2506 251° West 373 429 38,000  Level Memphis Center
10:40AM 32.2158 -89.3650 250° West 373 429 38,000  Level Memphis Center
10:41AM 32.1833 -89.4778 251° West 371 427 38,000  Level Memphis Center
10:42AM 32.1511 -89.5883 251° West 363 418 38,000  Level Memphis Center
10:43AM 32.1189 -89.7000 251° West 361 415 38,000  Level Memphis Center
10:44AM 32.0789 -89.8375 251° West 363 418 38,000  Level Memphis Center
10:45AM 32.0436 -89.9553 251° West 375 432 38,000  Level Memphis Center
10:46AM 32.0078 -90.0714 250° West 378 435 38,000  Level Memphis Center
10:47AM 31.9747 -90.1872 251° West 377 434 38,000  Level Memphis Center
10:49AM 31.9403 -90.3014 250° West 376 433 38,000  Level Memphis Center
10:49AM 31.9097 -90.4019 250° West 375 432 38,000  Level Houston Center
10:50AM 31.8750 -90.5164 250° West 375 432 38,000  Level Houston Center
10:51AM 31.8417 -90.6289 251° West 368 423 38,000  Level Houston Center
10:52AM 31.8072 -90.7419 250° West 368 423 38,000  Level Houston Center
10:53AM 31.7703 -90.8597 250° West 381 438 38,000  Level Houston Center
10:55AM 31.6922 -91.1169 250° West 371 427 38,000  Level Houston Center
10:57AM 31.6583 -91.2303 251° West 370 426 38,000  Level Houston Center
10:58AM 31.6217 -91.3444 249° West 371 427 38,000  Level Houston Center
10:59AM 31.5867 -91.4594 250° West 373 429 38,000  Level Houston Center
11:00AM 31.5500 -91.5733 249° West 373 429 38,000  Level Houston Center
11:01AM 31.5136 -91.6892 250° West 374 430 38,000  Level Houston Center
11:02AM 31.4706 -91.8275 250° West 376 433 38,000  Level Houston Center
11:03AM 31.4339 -91.9425 250° West 376 433 38,000  Level Houston Center
11:04AM 31.3958 -92.0622 250° West 376 433 38,000  Level Houston Center
11:05AM 31.3600 -92.1767 250° West 376 433 38,000 -48 Level Houston Center
11:06AM 31.3236 -92.2900 249° West 375 432 37,900  Descending Houston Center
11:07AM 31.2875 -92.4017 249° West 372 428 38,000 48 Climbing Houston Center
11:08AM 31.2511 -92.5150 249° West 372 428 38,000  Level Houston Center
11:09AM 31.1936 -92.6442 243° Southwest 372 428 38,000  Level Houston Center
11:10AM 31.1464 -92.7506 243° Southwest 372 428 38,000  Level Houston Center
11:11AM 31.0992 -92.8567 243° Southwest 372 428 38,000  Level Houston Center
11:12AM 31.0511 -92.9642 242° Southwest 372 428 38,000  Level Houston Center
11:13AM 31.0042 -93.0714 243° Southwest 372 428 38,000  Level Houston Center
11:14AM 30.9461 -93.1989 242° Southwest 372 428 38,000  Level Houston Center
11:15AM 30.8978 -93.3061 242° Southwest 372 428 38,000  Level Houston Center
11:16AM 30.8508 -93.4131 243° Southwest 374 430 38,000  Level Houston Center
11:17AM 30.8031 -93.5183 242° Southwest 372 428 38,000  Level Houston Center
11:18AM 30.7542 -93.6253 242° Southwest 373 429 38,000  Level Houston Center
11:19AM 30.6969 -93.7542 243° Southwest 375 432 38,000  Level Houston Center
11:20AM 30.6489 -93.8611 242° Southwest 375 432 38,000 -48 Level Houston Center
11:21AM 30.5992 -93.9689 242° Southwest 377 434 37,900  Descending Houston Center
11:22AM 30.5492 -94.0786 242° Southwest 384 442 38,000 48 Climbing Houston Center
11:23AM 30.4981 -94.1894 242° Southwest 386 444 38,000  Level Houston Center
11:24AM 30.4361 -94.3219 242° Southwest 388 447 38,000  Level Houston Center
11:26AM 30.3858 -94.4328 242° Southwest 388 447 38,000  Level Houston Center
11:27AM 30.3314 -94.5478 241° Southwest 396 456 38,000  Level Houston Center
11:28AM 30.2781 -94.6608 241° Southwest 398 458 38,000  Level Houston Center
11:29AM 30.2253 -94.7739 242° Southwest 399 459 38,000  Level Houston Center
11:30AM 30.1722 -94.8889 242° Southwest 403 464 38,000  Level Houston Center
11:31AM 30.1161 -95.0308 245° Southwest 406 467 38,000  Level Houston Center
11:32AM 30.0808 -95.1564 252° West 409 471 38,000  Level Houston Center
11:33AM 30.0450 -95.2811 252° West 411 473 38,000  Level Houston Center
11:34AM 30.0081 -95.4072 251° West 413 475 38,000  Level Houston Center
11:35AM 29.9639 -95.5572 251° West 414 476 38,000  Level Houston Center
11:36AM 29.9275 -95.6839 252° West 415 478 38,000  Level Houston Center
11:37AM 29.8903 -95.8089 251° West 415 478 38,000  Level Houston Center
11:38AM 29.8539 -95.9339 251° West 415 478 38,000  Level Houston Center
11:39AM 29.8150 -96.0611 251° West 414 476 38,000 -242 Level Houston Center
11:40AM 29.8075 -96.1900 266° West 411 473 37,500 -1,210 Descending Houston Center
11:41AM 29.8894 -96.3233 305° West 433 498 35,500 -2,016 Descending Houston Center
11:42AM 29.9603 -96.4219 310° West 410 472 33,300 -2,304 Descending Houston Center
11:43AM 30.0336 -96.5256 309° West 413 475 30,700 -2,032 Descending Houston Center
11:44AM 30.1078 -96.6281 310° West 420 483 29,100 -1,742 Descending Houston Center
11:45AM 30.1631 -96.7397 300° West 410 472 27,100 -2,177 Descending Houston Center
11:46AM 30.2131 -96.8822 292° West 401 461 24,600 -1,548 Descending Houston Center
11:47AM 30.2256 -97.0019 277° West 393 452 23,900 -290 Descending Houston Center
11:48AM 30.1842 -97.1181 248° West 392 451 24,000  Climbing Houston Center
11:49AM 30.1400 -97.2314 246° West 392 451 23,900 -960 Descending Houston Center
11:50AM 30.0969 -97.3469 247° West 392 451 22,000 -2,032 Descending Houston Center
11:51AM 30.0458 -97.4781 246° West 375 432 19,700 -1,981 Descending Houston Center
11:52AM 30.0194 -97.5469 246° West 348 400 18,500 -1,742 Descending Houston Center
11:52AM 30.0058 -97.5833 247° West 350 403 17,900 -1,574 Descending Houston Center
11:53AM 29.9794 -97.6536 247° West 339 390 16,900 -1,645 Descending Houston Center
11:53AM 29.9639 -97.6894 243° Southwest 340 391 16,200 -1,970 Descending Houston Center
11:54AM 29.9356 -97.7653 247° West 334 384 14,700 -1,839 Descending Houston Center
11:55AM 29.9275 -97.7861 246° West 333 383 14,300 -1,574 Descending Houston Center
11:55AM 29.9019 -97.8517 246° West 291 335 13,100 -1,355 Descending Houston Center
11:56AM 29.8950 -97.8719 248° West 296 341 12,900 -1,881 Descending Houston Center
11:56AM 29.9036 -97.9575 277° West 284 327 11,000 -2,129 Descending Houston Center
11:57AM 29.9081 -97.9708 291° West 293 337 10,700 -1,701 Descending Houston Center
11:58AM 29.9169 -98.0522 277° West 281 323 9,100 -1,619 Descending Houston Center
11:58AM 29.9194 -98.0586 294° West 282 325 9,000 -1,395 Descending Houston Center
11:58AM 29.9267 -98.1114 279° West 277 319 8,100 -1,645 Descending Houston Center
11:59AM 29.9336 -98.1517 281° West 278 320 7,300 -822 Descending Houston Center
11:59AM 29.9342 -98.2142 271° West 245 282 7,100 -290 Descending Houston Center
12:00PM 29.9233 -98.2228 215° Southwest 241 277 7,000 -600 Descending Houston Center
12:00PM 29.8769 -98.2308 189° South 206 237 6,500 -871 Descending Houston Center
12:01PM 29.8600 -98.2300 178° South 214 246 6,100 -1,154 Descending Houston Center
12:02PM 29.8039 -98.2453 193° South 206 237 5,000 -900 Descending Houston Center
12:02PM 29.7750 -98.2625 207° Southwest 168 193 4,600 -774 Descending Houston Center
12:03PM 29.7589 -98.2717 206° Southwest 170 196 4,200 -627 Descending Houston Center
12:04PM 29.7289 -98.2875 205° Southwest 163 188 3,900 -387 Descending Houston Center
12:04PM 29.7164 -98.2953 208° Southwest 170 196 3,800 -393 Descending Houston Center
12:05PM 29.6872 -98.3119 206° Southwest 169 194 3,500 -484 Descending Houston Center
12:05PM 29.6728 -98.3236 215° Southwest 170 196 3,300 -436 Descending Houston Center
12:05PM 29.6522 -98.3425 219° Southwest 169 194 3,100 -381 Descending Houston Center
12:06PM 29.6364 -98.3575 219° Southwest 169 194 2,900 -358 Descending Houston Center
12:07PM 29.6117 -98.3811 220° Southwest 164 189 2,700 -484 Descending Houston Center
12:07PM 29.6042 -98.3897 225° Southwest 158 182 2,400 -700 Descending Houston Center
12:08PM 29.5847 -98.4083 220° Southwest 124 143 2,000 -677 Descending Houston Center
12:08PM 29.5753 -98.4192 225° Southwest 133 153 1,700 -689 Descending Houston Center
12:09PM 29.5578 -98.4356 219° Southwest 127 146 1,300 -677 Descending Houston Center
12:09PM 29.5475 -98.4456 220° Southwest 132 152 1,000 -692 Descending Houston Center

Login

Don't have an account? Register now (free) for customized features, flight alerts, and more!